createdAt,value
2022-11-27T00:00:05.056Z,102613.53
2022-11-27T00:11:23.835Z,102598.34
2022-11-27T00:13:50.900Z,102586.78
2022-11-27T00:16:18.428Z,102581.22
2022-11-27T00:18:45.056Z,102589.28
2022-11-27T00:21:14.589Z,102579.38
2022-11-27T00:23:41.376Z,102577.66
2022-11-27T00:26:09.276Z,102574.22
2022-11-27T00:28:36.239Z,102576.03
2022-11-27T00:31:06.148Z,102572.63
2022-11-27T00:33:33.077Z,102567.25
2022-11-27T00:36:04.074Z,102565.88
2022-11-27T00:38:34.594Z,102556.31
2022-11-27T00:41:16.902Z,102562.63
2022-11-27T00:43:44.892Z,102559.28
2022-11-27T00:46:28.996Z,102571.66
2022-11-27T00:48:57.306Z,102557.47
2022-11-27T00:51:24.861Z,102573.59
2022-11-27T00:53:51.719Z,102564.00
2022-11-27T00:56:20.658Z,102556.91
2022-11-27T00:58:47.386Z,102550.81
2022-11-27T01:01:17.346Z,102551.66
2022-11-27T01:03:43.706Z,102542.94
2022-11-27T01:06:10.807Z,102556.44
2022-11-27T01:08:37.773Z,102544.97
2022-11-27T01:11:04.481Z,102551.06
2022-11-27T01:13:36.490Z,102548.47
2022-11-27T01:16:09.122Z,102544.78
2022-11-27T01:18:37.336Z,102538.75
2022-11-27T01:21:05.142Z,102531.47
2022-11-27T01:23:32.201Z,102525.41
2022-11-27T01:26:06.399Z,102521.75
2022-11-27T01:28:33.855Z,102527.22
2022-11-27T01:31:05.940Z,102514.69
2022-11-27T01:33:32.442Z,102512.81
2022-11-27T01:36:01.584Z,102522.56
2022-11-27T01:38:30.166Z,102518.84
2022-11-27T01:40:59.162Z,102510.06
2022-11-27T01:43:42.616Z,102508.44
2022-11-27T01:46:30.658Z,102508.25
2022-11-27T01:49:10.648Z,102493.00
2022-11-27T01:52:05.234Z,102478.63
2022-11-27T01:54:39.073Z,102478.53
2022-11-27T01:57:12.536Z,102478.47
2022-11-27T01:59:39.368Z,102468.75
2022-11-27T02:02:05.768Z,102450.69
2022-11-27T02:04:32.143Z,102451.16
2022-11-27T02:06:59.688Z,102443.81
2022-11-27T02:09:27.898Z,102437.72
2022-11-27T02:12:00.152Z,102445.88
2022-11-27T02:14:44.750Z,102426.91
2022-11-27T02:17:37.178Z,102428.88
2022-11-27T02:20:24.458Z,102433.44
2022-11-27T02:23:13.287Z,102439.41
2022-11-27T02:26:13.258Z,102412.75
2022-11-27T02:29:11.032Z,102421.75
2022-11-27T02:31:51.840Z,102405.00
2022-11-27T02:34:36.195Z,102422.94
2022-11-27T02:37:24.254Z,102417.72
2022-11-27T02:40:01.323Z,102433.75
2022-11-27T02:42:33.354Z,102432.78
2022-11-27T02:45:07.643Z,102429.09
2022-11-27T02:47:34.763Z,102431.16
2022-11-27T02:50:02.616Z,102422.22
2022-11-27T02:52:31.220Z,102417.88
2022-11-27T02:55:03.219Z,102415.03
2022-11-27T02:57:31.974Z,102414.16
2022-11-27T02:59:59.932Z,102406.88
2022-11-27T03:02:31.898Z,102410.44
2022-11-27T03:05:02.823Z,102413.84
2022-11-27T03:07:47.740Z,102414.06
2022-11-27T03:10:20.779Z,102414.06
2022-11-27T03:12:48.751Z,102408.69
2022-11-27T03:15:15.476Z,102403.47
2022-11-27T03:18:09.577Z,102417.63
2022-11-27T03:20:41.350Z,102410.59
2022-11-27T03:23:07.669Z,102405.09
2022-11-27T03:25:34.096Z,102416.47
2022-11-27T03:28:03.531Z,102419.06
2022-11-27T03:30:29.876Z,102421.91
2022-11-27T03:32:56.639Z,102415.44
2022-11-27T03:35:25.689Z,102409.41
2022-11-27T03:37:52.973Z,102406.72
2022-11-27T03:40:19.959Z,102407.84
2022-11-27T03:42:58.923Z,102397.16
2022-11-27T03:45:43.800Z,102395.59
2022-11-27T03:48:17.874Z,102390.34
2022-11-27T03:51:07.182Z,102398.44
2022-11-27T04:44:29.383Z,102355.69
2022-11-27T04:54:59.831Z,102353.44
2022-11-27T05:24:26.339Z,102320.22
2022-11-27T05:42:56.835Z,102298.25
2022-11-27T05:45:23.406Z,102294.53
2022-11-27T05:47:49.743Z,102292.72
2022-11-27T05:50:16.094Z,102292.53
2022-11-27T05:52:42.516Z,102291.91
2022-11-27T05:55:09.146Z,102291.00
2022-11-27T05:57:35.494Z,102279.44
2022-11-27T06:00:01.942Z,102289.31
2022-11-27T06:02:29.613Z,102291.28
2022-11-27T06:04:56.218Z,102298.47
2022-11-27T06:07:22.549Z,102283.47
2022-11-27T06:09:48.874Z,102288.59
2022-11-27T06:12:15.294Z,102287.81
2022-11-27T06:14:41.939Z,102278.03
2022-11-27T06:17:08.631Z,102280.72
2022-11-27T06:19:34.985Z,102289.84
2022-11-27T06:22:01.685Z,102280.88
2022-11-27T06:24:28.076Z,102283.47
2022-11-27T06:26:54.504Z,102276.22
2022-11-27T06:29:20.929Z,102275.16
2022-11-27T06:31:47.306Z,102271.94
2022-11-27T06:34:13.749Z,102263.00
2022-11-27T06:36:40.495Z,102267.44
2022-11-27T06:39:08.127Z,102261.09
2022-11-27T06:41:34.506Z,102263.00
2022-11-27T06:44:01.392Z,102255.66
2022-11-27T06:46:28.813Z,102254.84
2022-11-27T06:48:55.271Z,102244.03
2022-11-27T06:51:24.606Z,102256.63
2022-11-27T06:53:52.959Z,102247.69
2022-11-27T06:56:21.746Z,102245.69
2022-11-27T06:58:54.866Z,102245.69
2022-11-27T07:01:22.913Z,102249.34
2022-11-27T07:03:49.366Z,102249.47
2022-11-27T07:06:19.135Z,102248.63
2022-11-27T07:08:45.739Z,102237.00
2022-11-27T07:11:14.760Z,102237.00
2022-11-27T07:13:41.738Z,102238.91
2022-11-27T07:16:10.426Z,102229.19
2022-11-27T07:18:45.583Z,102229.22
2022-11-27T07:21:12.175Z,102220.41
2022-11-27T07:23:39.190Z,102214.06
2022-11-27T07:26:11.928Z,102215.75
2022-11-27T07:28:38.633Z,102221.13
2022-11-27T07:31:05.968Z,102206.81
2022-11-27T07:33:32.992Z,102197.06
2022-11-27T07:36:05.729Z,102191.78
2022-11-27T07:38:32.605Z,102202.53
2022-11-27T07:41:00.224Z,102191.72
2022-11-27T07:43:27.017Z,102187.47
2022-11-27T07:45:53.450Z,102185.63
2022-11-27T07:48:19.894Z,102187.38
2022-11-27T07:50:46.926Z,102188.25
2022-11-27T07:53:13.554Z,102179.31
2022-11-27T07:55:42.536Z,102187.31
2022-11-27T07:58:09.563Z,102175.69
2022-11-27T08:00:36.508Z,102184.63
2022-11-27T08:03:03.382Z,102178.44
2022-11-27T08:05:30.016Z,102180.81
2022-11-27T08:08:00.028Z,102181.84
2022-11-27T08:10:27.087Z,102181.56
2022-11-27T08:12:53.476Z,102178.00
2022-11-27T08:15:19.809Z,102172.63
2022-11-27T08:17:46.134Z,102171.50
2022-11-27T08:20:12.659Z,102161.81
2022-11-27T08:22:39.007Z,102162.50
2022-11-27T08:25:05.874Z,102156.97
2022-11-27T08:27:33.108Z,102168.41
2022-11-27T08:30:00.228Z,102169.38
2022-11-27T08:32:26.691Z,102163.31
2022-11-27T08:34:52.961Z,102165.91
2022-11-27T08:37:19.252Z,102172.06
2022-11-27T08:39:45.582Z,102173.97
2022-11-27T08:42:13.241Z,102172.81
2022-11-27T08:44:40.891Z,102163.66
2022-11-27T08:47:07.920Z,102171.41
2022-11-27T08:49:34.207Z,102169.81
2022-11-27T08:52:00.560Z,102164.09
2022-11-27T08:54:27.139Z,102155.03
2022-11-27T08:56:54.598Z,102155.94
2022-11-27T08:59:20.995Z,102159.44
2022-11-27T09:01:47.350Z,102172.38
2022-11-27T09:04:13.908Z,102169.88
2022-11-27T09:06:44.313Z,102167.97
2022-11-27T09:09:11.031Z,102164.41
2022-11-27T09:11:37.813Z,102168.72
2022-11-27T09:14:05.372Z,102166.22
2022-11-27T09:16:32.677Z,102158.25
2022-11-27T09:18:59.287Z,102153.66
2022-11-27T09:21:27.252Z,102161.72
2022-11-27T09:23:55.195Z,102159.72
2022-11-27T09:26:22.102Z,102160.44
2022-11-27T09:28:48.417Z,102156.88
2022-11-27T09:31:17.094Z,102163.81
2022-11-27T09:33:44.388Z,102150.38
2022-11-27T09:36:17.099Z,102155.75
2022-11-27T09:38:43.739Z,102158.19
2022-11-27T09:41:35.352Z,102158.88
2022-11-27T09:44:05.950Z,102148.91
2022-11-27T09:46:37.187Z,102140.84
2022-11-27T09:49:08.953Z,102139.63
2022-11-27T09:51:48.157Z,102131.63
2022-11-27T09:54:20.620Z,102129.81
2022-11-27T09:56:50.630Z,102128.94
2022-11-27T09:59:22.373Z,102127.72
2022-11-27T10:01:51.064Z,102122.88
2022-11-27T10:04:20.214Z,102120.97
2022-11-27T10:07:13.183Z,102120.88
2022-11-27T10:09:46.594Z,102116.38
2022-11-27T10:12:48.462Z,102117.84
2022-11-27T10:15:30.030Z,102116.00
2022-11-27T10:18:19.593Z,102108.53
2022-11-27T10:20:54.331Z,102101.34
2022-11-27T10:23:32.264Z,102096.84
2022-11-27T10:26:31.545Z,102093.88
2022-11-27T10:29:11.403Z,102084.69
2022-11-27T10:31:45.322Z,102095.63
2022-11-27T10:34:34.450Z,102089.09
2022-11-27T10:37:06.375Z,102082.75
2022-11-27T10:39:55.886Z,102089.09
2022-11-27T10:42:27.918Z,102075.63
2022-11-27T10:45:26.045Z,102076.13
2022-11-27T10:47:52.410Z,102078.66
2022-11-27T10:50:20.060Z,102070.50
2022-11-27T10:52:53.732Z,102063.13
2022-11-27T10:55:52.616Z,102051.19
2022-11-27T10:58:41.503Z,102054.13
2022-11-27T11:01:13.435Z,102046.97
2022-11-27T11:03:40.435Z,102039.78
2022-11-27T11:06:21.917Z,102039.78
2022-11-27T11:09:01.515Z,102033.25
2022-11-27T11:11:28.199Z,102026.34
2022-11-27T11:13:54.699Z,102017.22
2022-11-27T11:16:35.300Z,102028.59
2022-11-27T11:19:02.729Z,102019.72
2022-11-27T11:21:33.155Z,102011.56
2022-11-27T11:24:01.384Z,102023.00
2022-11-27T11:26:38.010Z,102008.56
2022-11-27T11:29:06.156Z,101997.44
2022-11-27T11:31:39.831Z,101997.22
2022-11-27T11:34:21.236Z,101988.84
2022-11-27T11:37:05.276Z,101978.66
2022-11-27T11:39:44.935Z,101970.78
2022-11-27T11:42:20.350Z,101972.31
2022-11-27T11:44:52.622Z,101969.44
2022-11-27T11:47:21.714Z,101971.72
2022-11-27T11:49:48.025Z,101971.22
2022-11-27T11:52:33.620Z,101969.53
2022-11-27T11:55:03.504Z,101960.00
2022-11-27T11:57:59.345Z,101948.44
2022-11-27T12:00:58.401Z,101942.28
2022-11-27T12:03:36.303Z,101942.84
2022-11-27T12:06:18.551Z,101938.25
2022-11-27T12:09:10.998Z,101932.53
2022-11-27T12:12:12.512Z,101924.34
2022-11-27T12:14:47.387Z,101925.03
2022-11-27T12:17:49.939Z,101921.94
2022-11-27T12:20:50.465Z,101910.28
2022-11-27T12:23:45.517Z,101896.91
2022-11-27T12:26:49.563Z,101895.09
2022-11-27T12:29:42.796Z,101883.44
2022-11-27T12:32:27.475Z,101881.16
2022-11-27T12:35:15.669Z,101881.91
2022-11-27T12:38:12.037Z,101885.59
2022-11-27T12:41:08.915Z,101883.88
2022-11-27T12:43:43.845Z,101881.16
2022-11-27T12:47:00.793Z,101882.88
2022-11-27T12:49:45.594Z,101874.81
2022-11-27T12:52:22.870Z,101865.41
2022-11-27T12:55:15.151Z,101862.81
2022-11-27T12:57:49.511Z,101866.38
2022-11-27T13:00:18.713Z,101864.63
2022-11-27T13:03:11.102Z,101854.94
2022-11-27T13:05:43.561Z,101855.78
2022-11-27T13:08:18.397Z,101852.53
2022-11-27T13:10:50.478Z,101850.13
2022-11-27T13:13:35.583Z,101846.56
2022-11-27T13:16:26.703Z,101841.28
2022-11-27T13:19:05.347Z,101846.78
2022-11-27T13:21:34.434Z,101832.53
2022-11-27T13:24:01.682Z,101834.47
2022-11-27T13:26:36.095Z,101832.75
2022-11-27T13:29:24.471Z,101830.94
2022-11-27T13:31:55.702Z,101830.16
2022-11-27T13:34:27.894Z,101822.53
2022-11-27T13:37:06.722Z,101826.22
2022-11-27T13:39:36.977Z,101819.94
2022-11-27T13:42:17.985Z,101828.13
2022-11-27T13:44:56.967Z,101819.41
2022-11-27T13:47:26.414Z,101814.22
2022-11-27T13:50:01.836Z,101806.41
2022-11-27T13:52:29.472Z,101799.81
2022-11-27T13:54:58.455Z,101795.72
2022-11-27T13:57:26.103Z,101788.56
2022-11-27T14:00:01.241Z,101781.47
2022-11-27T14:02:47.521Z,101777.72
2022-11-27T14:05:17.395Z,101774.28
2022-11-27T14:07:47.758Z,101769.72
2022-11-27T14:10:26.916Z,101766.38
2022-11-27T14:13:02.982Z,101769.16
2022-11-27T14:15:32.829Z,101759.38
2022-11-27T14:18:18.471Z,101761.41
2022-11-27T14:20:51.882Z,101755.16
2022-11-27T14:23:28.522Z,101751.78
2022-11-27T14:26:24.837Z,101754.59
2022-11-27T14:28:53.986Z,101749.09
2022-11-27T14:31:32.343Z,101751.78
2022-11-27T14:34:14.819Z,101744.97
2022-11-27T14:36:43.670Z,101737.78
2022-11-27T14:39:21.075Z,101726.25
2022-11-27T14:41:59.794Z,101727.13
2022-11-27T14:44:26.257Z,101721.63
2022-11-27T14:46:52.839Z,101717.13
2022-11-27T14:49:21.395Z,101719.81
2022-11-27T14:51:48.765Z,101709.81
2022-11-27T14:54:32.495Z,101707.03
2022-11-27T14:56:58.868Z,101699.34
2022-11-27T14:59:25.725Z,101706.63
2022-11-27T15:02:20.003Z,101712.91
2022-11-27T15:04:48.698Z,101704.91
2022-11-27T15:07:27.530Z,101699.44
2022-11-27T15:09:56.291Z,101689.53
2022-11-27T15:12:27.595Z,101696.75
2022-11-27T15:15:01.516Z,101695.88
2022-11-27T15:17:30.706Z,101696.47
2022-11-27T15:19:58.094Z,101701.84
2022-11-27T15:22:24.514Z,101694.81
2022-11-27T15:25:06.226Z,101693.78
2022-11-27T15:27:44.383Z,101683.63
2022-11-27T15:30:18.075Z,101682.47
2022-11-27T15:32:52.556Z,101680.78
2022-11-27T15:35:28.823Z,101664.41
2022-11-27T15:37:59.456Z,101662.78
2022-11-27T15:40:40.666Z,101649.97
2022-11-27T15:43:15.143Z,101657.31
2022-11-27T15:45:43.647Z,101656.34
2022-11-27T15:48:18.720Z,101648.25
2022-11-27T15:50:50.072Z,101645.34
2022-11-27T15:53:17.863Z,101641.16
2022-11-27T15:55:44.233Z,101644.69
2022-11-27T15:58:10.624Z,101636.34
2022-11-27T16:00:37.062Z,101640.53
2022-11-27T16:03:03.543Z,101644.84
2022-11-27T16:05:30.087Z,101637.94
2022-11-27T16:07:56.487Z,101642.16
2022-11-27T16:10:22.986Z,101642.16
2022-11-27T16:12:49.268Z,101639.47
2022-11-27T16:15:18.289Z,101639.16
2022-11-27T16:17:44.575Z,101634.63
2022-11-27T16:20:11.253Z,101625.47
2022-11-27T16:22:37.539Z,101612.44
2022-11-27T16:25:04.066Z,101616.44
2022-11-27T16:27:30.371Z,101609.03
2022-11-27T16:29:56.716Z,101593.91
2022-11-27T16:32:23.045Z,101592.97
2022-11-27T16:34:50.633Z,101595.44
2022-11-27T16:37:18.557Z,101596.28
2022-11-27T16:39:45.349Z,101582.75
2022-11-27T16:42:11.605Z,101585.97
2022-11-27T16:44:38.004Z,101580.91
2022-11-27T16:47:04.349Z,101581.22
2022-11-27T16:49:30.816Z,101573.16
2022-11-27T16:51:57.103Z,101569.59
2022-11-27T16:54:23.427Z,101564.19
2022-11-27T16:56:49.727Z,101563.78
2022-11-27T16:59:16.137Z,101566.25
2022-11-27T17:01:43.300Z,101562.03
2022-11-27T17:04:16.168Z,101554.72
2022-11-27T17:06:42.583Z,101559.25
2022-11-27T17:09:08.912Z,101549.69
2022-11-27T17:11:36.621Z,101550.72
2022-11-27T17:14:05.673Z,101555.78
2022-11-27T17:16:32.671Z,101546.75
2022-11-27T17:18:59.321Z,101545.03
2022-11-27T17:21:29.232Z,101541.56
2022-11-27T17:24:15.896Z,101539.00
2022-11-27T17:26:43.559Z,101541.69
2022-11-27T17:29:15.120Z,101532.44
2022-11-27T17:31:41.957Z,101537.28
2022-11-27T17:34:11.892Z,101535.78
2022-11-27T17:36:38.151Z,101518.22
2022-11-27T17:39:05.968Z,101534.59
2022-11-27T17:41:32.866Z,101521.97
2022-11-27T17:43:59.217Z,101525.97
2022-11-27T17:46:27.924Z,101528.00
2022-11-27T17:48:54.987Z,101516.59
2022-11-27T17:51:21.931Z,101509.28
2022-11-27T17:53:49.043Z,101509.72
2022-11-27T17:56:17.487Z,101509.06
2022-11-27T17:58:44.366Z,101505.06
2022-11-27T18:01:20.274Z,101501.50
2022-11-27T18:03:46.839Z,101495.38
2022-11-27T18:06:14.472Z,101494.63
2022-11-27T18:08:40.857Z,101496.78
2022-11-27T18:11:13.488Z,101493.97
2022-11-27T18:13:40.088Z,101481.59
2022-11-27T18:16:09.042Z,101482.03
2022-11-27T18:18:36.343Z,101471.38
2022-11-27T18:21:16.826Z,101474.38
2022-11-27T18:24:20.897Z,101468.56
2022-11-27T18:26:52.524Z,101460.50
2022-11-27T18:29:18.998Z,101461.78
2022-11-27T18:31:45.373Z,101451.41
2022-11-27T18:34:13.385Z,101459.50
2022-11-27T18:36:39.840Z,101453.38
2022-11-27T18:39:06.402Z,101456.16
2022-11-27T18:41:32.769Z,101454.44
2022-11-27T18:43:59.342Z,101453.69
2022-11-27T18:46:25.926Z,101448.19
2022-11-27T18:48:52.464Z,101449.81
2022-11-27T18:51:21.799Z,101439.56
2022-11-27T18:53:49.127Z,101435.06
2022-11-27T18:56:19.230Z,101430.44
2022-11-27T18:58:46.235Z,101428.72
2022-11-27T19:01:21.051Z,101431.50
2022-11-27T19:03:47.923Z,101411.91
2022-11-27T19:06:15.756Z,101414.81
2022-11-27T19:08:42.367Z,101422.06
2022-11-27T19:11:11.362Z,101416.69
2022-11-27T19:13:38.347Z,101415.81
2022-11-27T19:16:15.385Z,101417.53
2022-11-27T19:18:41.976Z,101401.38
2022-11-27T19:21:13.986Z,101405.06
2022-11-27T19:23:40.687Z,101398.03
2022-11-27T19:26:12.932Z,101388.28
2022-11-27T19:28:40.213Z,101397.94
2022-11-27T19:31:09.634Z,101405.34
2022-11-27T19:33:36.807Z,101396.44
2022-11-27T19:36:13.832Z,101386.53
2022-11-27T19:38:42.333Z,101385.69
2022-11-27T19:41:13.773Z,101386.53
2022-11-27T19:43:40.211Z,101391.06
2022-11-27T19:46:21.777Z,101379.44
2022-11-27T19:48:49.168Z,101379.34
2022-11-27T19:51:16.095Z,101376.75
2022-11-27T19:53:44.093Z,101376.09
2022-11-27T19:56:10.721Z,101361.91
2022-11-27T19:58:37.604Z,101369.00
2022-11-27T20:01:14.307Z,101355.56
2022-11-27T20:03:41.455Z,101353.81
2022-11-27T20:06:10.434Z,101348.44
2022-11-27T20:08:37.995Z,101347.63
2022-11-27T20:11:09.555Z,101342.13
2022-11-27T20:13:36.255Z,101333.31
2022-11-27T20:16:07.072Z,101329.75
2022-11-27T20:18:33.650Z,101311.03
2022-11-27T20:21:04.961Z,101312.78
2022-11-27T20:23:31.383Z,101312.00
2022-11-27T20:25:57.677Z,101307.59
2022-11-27T20:28:24.332Z,101303.94
2022-11-27T20:30:58.779Z,101303.84
2022-11-27T20:33:25.493Z,101297.69
2022-11-27T20:35:51.810Z,101299.22
2022-11-27T20:38:18.192Z,101300.16
2022-11-27T20:40:44.580Z,101292.09
2022-11-27T20:43:10.897Z,101287.59
2022-11-27T20:45:41.772Z,101292.22
2022-11-27T20:48:09.490Z,101283.38
2022-11-27T20:50:38.539Z,101273.50
2022-11-27T20:53:05.290Z,101277.81
2022-11-27T20:55:33.765Z,101271.47
2022-11-27T20:58:00.192Z,101260.94
2022-11-27T21:00:26.916Z,101271.47
2022-11-27T21:02:53.273Z,101263.63
2022-11-27T21:05:19.566Z,101259.84
2022-11-27T21:07:46.167Z,101262.63
2022-11-27T21:10:15.374Z,101261.78
2022-11-27T21:12:41.997Z,101259.84
2022-11-27T21:15:09.363Z,101253.63
2022-11-27T21:17:36.039Z,101258.13
2022-11-27T21:20:02.446Z,101249.94
2022-11-27T21:22:28.996Z,101246.41
2022-11-27T21:24:55.322Z,101255.22
2022-11-27T21:27:21.761Z,101249.94
2022-11-27T21:29:48.115Z,101241.13
2022-11-27T21:32:14.564Z,101243.81
2022-11-27T21:34:41.244Z,101242.13
2022-11-27T21:37:07.701Z,101238.31
2022-11-27T21:39:34.087Z,101239.19
2022-11-27T21:42:00.379Z,101239.19
2022-11-27T21:44:26.740Z,101234.03
2022-11-27T21:46:53.030Z,101221.44
2022-11-27T21:49:20.478Z,101225.00
2022-11-27T21:51:50.795Z,101226.75
2022-11-27T21:54:17.103Z,101219.72
2022-11-27T21:56:43.382Z,101216.19
2022-11-27T21:59:13.322Z,101208.88
2022-11-27T22:01:39.788Z,101210.59
2022-11-27T22:04:06.135Z,101214.03
2022-11-27T22:06:40.287Z,101206.72
2022-11-27T22:09:13.395Z,101206.47
2022-11-27T22:11:41.620Z,101202.84
2022-11-27T22:14:08.513Z,101194.66
2022-11-27T22:16:44.128Z,101187.47
2022-11-27T22:19:11.488Z,101178.66
2022-11-27T22:21:37.814Z,101178.41
2022-11-27T22:24:04.414Z,101168.63
2022-11-27T22:26:30.800Z,101170.34
2022-11-27T22:28:57.584Z,101161.28
2022-11-27T22:31:29.070Z,101165.09
2022-11-27T22:33:55.865Z,101156.91
2022-11-27T22:36:31.160Z,101153.34
2022-11-27T22:38:58.654Z,101144.22
2022-11-27T22:41:27.454Z,101135.28
2022-11-27T22:43:54.068Z,101134.31
2022-11-27T22:46:26.432Z,101131.50
2022-11-27T22:48:54.201Z,101132.34
2022-11-27T22:51:20.915Z,101122.69
2022-11-27T22:53:47.306Z,101119.88
2022-11-27T22:56:13.784Z,101117.19
2022-11-27T22:58:41.902Z,101124.09
2022-11-27T23:01:18.239Z,101131.28
2022-11-27T23:03:45.197Z,101126.53
2022-11-27T23:06:13.617Z,101118.47
2022-11-27T23:08:44.499Z,101114.69
2022-11-27T23:11:15.498Z,101114.69
2022-11-27T23:13:45.091Z,101112.00
2022-11-27T23:16:16.078Z,101115.19
2022-11-27T23:18:42.535Z,101107.25
2022-11-27T23:21:12.356Z,101109.94
2022-11-27T23:23:38.651Z,101123.25
2022-11-27T23:26:06.966Z,101112.63
2022-11-27T23:28:33.467Z,101109.94
2022-11-27T23:31:28.201Z,101105.78
2022-11-27T23:33:51.948Z,101103.28
2022-11-27T23:36:18.546Z,101092.53
2022-11-27T23:38:45.315Z,101090.06
2022-11-27T23:41:14.629Z,101096.09
2022-11-27T23:43:41.603Z,101089.75
2022-11-27T23:46:11.477Z,101090.72
2022-11-27T23:48:38.032Z,101078.00
2022-11-27T23:51:12.268Z,101084.88
2022-11-27T23:53:38.573Z,101075.84
2022-11-27T23:56:08.863Z,101076.59
2022-11-27T23:58:35.675Z,101077.44
